Arnold AFB, Tennessee
Current Conditions -  °F | °C
As of 7:35 PM on Monday 22 Dec 2014 (Local Time) from KTHA Reporting Station
Overcast Overcast  
Wind Chill:   Ceiling: 800
Heat Index:   Visibility: 2.5mi
Dew Point:   Wind: 10mph
Humidity: 93%   Direction: 140°SE
Pressure: 29.77"   Gusts: NA
Location:  35.36°N, 86.21°W
Report Text: KTHA 230135Z AUTO 14009KT 2 1/2SM SCT005 OVC008 09/08 A2977 RMK
Loading
Personal Weather Stations






























Interactive Weather Map New forecast layout! Learn more

10-Day Weather Forecast

Advertisements
Track Severe Weather on mobile